Tuesday, September 02, 2014
04:25 UTC
  |  Log In   |  Register Free
Airport Search:

Big Bear City Airport
(L35)

Big Bear City Airport Diagram
No Airport Diagram Available

FAA data valid effective July 24, 2014 until September 18, 2014 (unless otherwise noted).

 
 
 
 
 
 
 
 
 
 
 
 
 
 

Current Aviation Weather for Big Bear City Airport (L35)

The most recent METAR observation for KSBD was updated at: 0150 UTC
METAR Summary (Translated METAR)
KSBD
020150Z 23008KT 10SM SKC 30/12 A2978
KRIV
(12.9 nm SW from KSBD)
020158Z 30006KT 10SM FEW200 30/15 A2982 RMK AO2A SLP085 T02970154
TAF Summary (Translated TAF)
KRIV
(12.9 nm SW from KSBD)
0120/0302 30009KT 9999 FEW200 QNH2979INS TEMPO 0122/0202 30012G18KT BECMG 0212/0213 15006KT 8000 BR SCT002 QNH2984INS TEMPO 0213/0216 3200 BR BKN003 BECMG 0220/0221 30009KT 9999 NSW SKC QNH2977INS TEMPO 0222/0302 30012G18KT TX35/0122Z TN14/0213Z
  Airport Weather Conditions for L35

Current weather conditions are
not available for L35


The nearest NOAA weather station
is at SBD, (21.4 nm SW from L35)
  
 Current Weather at SBD
79° F
Clear
Southwest winds at 4.6 mph
SBD NOAA Radar

Pressure: 29.83 in
Humidity: 45%
Wind: Southwest at 4.6 MPH (4 KT)
Dew Point: 55.4°F
Visibility: 10.00 mi


Airport Weather Forecast for L35

Translated METAR and TAF for KSBD
Translated METAR for KSBD (0419 UTC 02 September 2014)
found at http://aviationweather.gov/adds/metars/
 
METAR text: KSBD 020347Z 23004KT 10SM SKC 26/13 A2983
Conditions at: KSBD (SAN BERNARDINO , CA, US) observed 0347 UTC 02 September 2014
Temperature: 26.0°C (79°F)
Dewpoint: 13.0°C (55°F) [RH = 45%]
Pressure (altimeter): 29.83 inches Hg (1010.2 mb)
Winds: from the SW (230 degrees) at 5 MPH (4 knots; 2.1 m/s)
Visibility: 10 or more miles (16+ km)
Ceiling: at least 12,000 feet AGL
Clouds: clear skies
Weather: no significant weather observed at this time
Translated TAF for KSBD

There is no translated TAF available for this airport

Find All Airport Services Find A Hotel Find A Rental Car Find A Golf Course Find A Restaurant $100 Hamburger



FBO's on the Field
FBO Company Facility Photos Services Transportation Aviation Fuel Prices: Prices include tax
Catering Weather Repair Courtesy Rental Type 100LL JetA JetA+ MOGAS 8087
 
Big Bear Airport

This FBO has not yet been rated
FS:Epic
Last Updated: Aug-20
Login to update fuel prices
SS:
Contact Big Bear AirportMore FBO Information
 
Add another FBO Facility Photos Catering Weather Repair Courtesy Rental Type 100LL JetA JetA+ MOGAS 8087
Services Transportation Aviation Fuel Prices: Prices include tax


GlobalAir.com Airport Resource Center model-print
model-print
model-print
model-print